createdAt,value
2018-01-23T00:00:58.010Z,25.60
2018-01-23T00:13:47.786Z,25.45
2018-01-23T00:18:53.874Z,24.98
2018-01-23T00:21:25.238Z,27.98
2018-01-23T00:24:06.326Z,25.52
2018-01-23T00:31:53.646Z,26.10
2018-01-23T00:52:26.642Z,26.83
2018-01-23T00:54:56.566Z,27.25
2018-01-23T00:57:33.909Z,29.10
2018-01-23T01:00:01.946Z,28.87
2018-01-23T01:02:31.938Z,28.30
2018-01-23T01:05:02.146Z,28.02
2018-01-23T01:07:34.314Z,25.95
2018-01-23T01:10:04.158Z,26.95
2018-01-23T01:12:37.698Z,26.17
2018-01-23T01:15:10.406Z,26.90
2018-01-23T01:17:41.161Z,26.62
2018-01-23T01:20:16.010Z,27.48
2018-01-23T01:22:45.270Z,26.40
2018-01-23T01:25:21.675Z,27.95
2018-01-23T01:27:49.777Z,26.95
2018-01-23T01:30:20.198Z,26.87
2018-01-23T01:32:51.382Z,27.73
2018-01-23T01:35:20.966Z,26.50
2018-01-23T01:40:26.784Z,26.40
2018-01-23T01:42:58.825Z,25.15
2018-01-23T01:50:40.682Z,22.58
2018-01-23T01:53:17.917Z,23.92
2018-01-23T01:58:27.094Z,22.15
2018-01-23T02:00:58.894Z,22.85
2018-01-23T02:03:33.929Z,21.30
2018-01-23T02:06:06.893Z,21.15
2018-01-23T02:08:43.251Z,21.70
2018-01-23T02:16:28.605Z,20.40
2018-01-23T02:19:00.975Z,21.80
2018-01-23T02:24:02.577Z,20.02
2018-01-23T02:26:30.814Z,19.35
2018-01-23T02:34:08.686Z,19.08
2018-01-23T02:36:39.218Z,18.48
2018-01-23T02:39:07.654Z,17.12
2018-01-23T02:41:37.129Z,16.60
2018-01-23T02:46:41.602Z,16.25
2018-01-23T02:49:12.546Z,16.92
2018-01-23T02:51:47.437Z,19.20
2018-01-23T02:54:22.352Z,17.58
2018-01-23T02:56:51.391Z,15.82
2018-01-23T02:59:21.978Z,14.98
2018-01-23T03:01:59.561Z,15.70
2018-01-23T03:04:28.610Z,16.27
2018-01-23T03:07:00.485Z,16.27
2018-01-23T03:09:37.933Z,16.83
2018-01-23T03:12:10.218Z,18.00
2018-01-23T03:14:42.506Z,16.25
2018-01-23T03:17:12.126Z,16.60
2018-01-23T03:25:02.870Z,18.60
2018-01-23T03:30:33.721Z,16.40
2018-01-23T03:33:09.350Z,18.00
2018-01-23T03:46:07.938Z,17.33
2018-01-23T03:51:18.527Z,19.12
2018-01-23T03:53:48.209Z,16.10
2018-01-23T04:01:41.422Z,17.50
2018-01-23T04:11:54.701Z,16.83
2018-01-23T04:14:25.058Z,16.90
2018-01-23T04:16:58.069Z,17.83
2018-01-23T04:19:30.913Z,18.05
2018-01-23T04:22:03.826Z,17.00
2018-01-23T04:24:36.949Z,18.95
2018-01-23T04:27:06.489Z,17.60
2018-01-23T04:29:43.849Z,16.85
2018-01-23T04:32:13.689Z,16.95
2018-01-23T04:37:40.593Z,16.80
2018-01-23T04:40:22.134Z,17.25
2018-01-23T04:43:01.557Z,17.42
2018-01-23T04:48:07.159Z,19.75
2018-01-23T04:50:38.465Z,19.20
2018-01-23T04:53:21.065Z,18.80
2018-01-23T04:55:53.077Z,19.05
2018-01-23T04:58:23.301Z,18.45
2018-01-23T05:00:55.149Z,19.75
2018-01-23T05:03:25.029Z,17.15
2018-01-23T05:05:54.753Z,15.80
2018-01-23T05:08:27.937Z,16.08
2018-01-23T05:11:02.725Z,15.93
2018-01-23T05:13:31.117Z,12.95
2018-01-23T05:16:01.097Z,15.38
2018-01-23T05:18:34.713Z,16.67
2018-01-23T05:21:04.931Z,16.17
2018-01-23T05:23:41.449Z,16.35
2018-01-23T05:26:14.601Z,14.00
2018-01-23T05:28:52.361Z,18.00
2018-01-23T05:36:47.049Z,15.80
2018-01-23T05:39:25.781Z,14.45
2018-01-23T05:41:56.197Z,16.50
2018-01-23T06:20:57.765Z,17.08
2018-01-23T06:39:06.026Z,18.80
2018-01-23T06:41:39.697Z,19.52
2018-01-23T06:46:44.025Z,17.55
2018-01-23T06:49:14.669Z,18.62
2018-01-23T06:51:43.289Z,18.27
2018-01-23T06:54:14.005Z,20.17
2018-01-23T06:56:45.229Z,20.70
2018-01-23T07:04:32.441Z,19.65
2018-01-23T07:07:00.505Z,20.58
2018-01-23T07:09:30.833Z,22.02
2018-01-23T07:12:00.301Z,22.37
2018-01-23T07:14:29.285Z,20.05
2018-01-23T07:16:57.325Z,22.08
2018-01-23T07:19:25.369Z,23.60
2018-01-23T07:21:54.321Z,23.40
2018-01-23T07:24:27.237Z,31.20
2018-01-23T07:26:55.265Z,25.62
2018-01-23T07:29:25.298Z,23.62
2018-01-23T07:31:56.326Z,25.83
2018-01-23T07:34:26.348Z,26.08
2018-01-23T07:36:56.319Z,23.12
2018-01-23T07:39:25.408Z,22.08
2018-01-23T07:41:55.389Z,24.12
2018-01-23T07:44:23.449Z,20.88
2018-01-23T07:46:52.480Z,22.98
2018-01-23T07:49:21.412Z,22.42
2018-01-23T07:51:49.437Z,22.70
2018-01-23T07:54:19.377Z,22.77
2018-01-23T07:56:48.392Z,23.20
2018-01-23T07:59:16.416Z,22.05
2018-01-23T08:01:45.348Z,20.25
2018-01-23T08:04:13.377Z,21.65
2018-01-23T08:06:41.400Z,22.80
2018-01-23T08:09:09.420Z,24.20
2018-01-23T08:11:43.084Z,23.17
2018-01-23T08:14:16.148Z,24.17
2018-01-23T08:16:44.172Z,23.67
2018-01-23T08:19:14.164Z,24.08
2018-01-23T08:21:46.328Z,21.95
2018-01-23T08:24:16.000Z,21.98
2018-01-23T08:26:56.092Z,22.70
2018-01-23T08:29:29.141Z,22.17
2018-01-23T08:32:10.056Z,22.45
2018-01-23T08:34:43.813Z,22.77
2018-01-23T08:37:12.820Z,23.02
2018-01-23T08:39:55.200Z,22.37
2018-01-23T08:42:23.936Z,25.73
2018-01-23T08:44:54.956Z,24.37
2018-01-23T08:47:22.972Z,22.87
2018-01-23T08:49:56.510Z,23.35
2018-01-23T08:55:19.072Z,23.12
2018-01-23T08:57:47.117Z,23.85
2018-01-23T09:00:18.908Z,24.17
2018-01-23T09:02:57.280Z,22.77
2018-01-23T09:05:27.234Z,23.27
2018-01-23T09:07:57.144Z,20.95
2018-01-23T09:10:42.478Z,22.20
2018-01-23T09:13:12.248Z,22.13
2018-01-23T09:15:41.144Z,22.85
2018-01-23T09:18:18.480Z,22.83
2018-01-23T09:20:53.960Z,23.27
2018-01-23T09:23:25.612Z,21.20
2018-01-23T09:25:57.967Z,22.80
2018-01-23T09:28:33.352Z,21.83
2018-01-23T09:31:05.692Z,25.62
2018-01-23T09:33:37.276Z,23.27
2018-01-23T09:36:09.780Z,22.40
2018-01-23T09:38:41.612Z,23.40
2018-01-23T09:41:18.936Z,22.33
2018-01-23T09:43:53.656Z,25.73
2018-01-23T09:46:26.784Z,21.73
2018-01-23T09:48:56.712Z,23.55
2018-01-23T09:51:38.552Z,25.00
2018-01-23T09:54:10.812Z,25.45
2018-01-23T09:56:39.747Z,23.67
2018-01-23T10:02:05.688Z,22.30
2018-01-23T10:04:35.712Z,35.08
2018-01-23T10:07:04.624Z,25.73
2018-01-23T10:09:54.559Z,35.70
2018-01-23T10:12:22.575Z,73.68
2018-01-23T10:14:51.376Z,171.75
2018-01-23T10:17:21.375Z,205.40
2018-01-23T10:19:54.239Z,79.00
2018-01-23T10:22:25.796Z,20.27
2018-01-23T10:24:53.816Z,16.42
2018-01-23T10:27:25.403Z,22.08
2018-01-23T10:29:53.419Z,20.95
2018-01-23T10:32:25.139Z,13.70
2018-01-23T10:34:58.759Z,17.20
2018-01-23T10:37:27.547Z,16.45
2018-01-23T10:39:56.403Z,13.90
2018-01-23T10:42:24.415Z,16.15
2018-01-23T10:44:57.980Z,12.10
2018-01-23T10:47:32.343Z,11.90
2018-01-23T10:50:00.367Z,12.93
2018-01-23T10:52:33.051Z,12.98
2018-01-23T10:55:01.071Z,10.25
2018-01-23T10:57:32.875Z,12.25
2018-01-23T11:00:07.635Z,10.15
2018-01-23T11:02:49.727Z,10.00
2018-01-23T11:05:35.368Z,10.30
2018-01-23T11:08:14.271Z,9.80
2018-01-23T11:10:57.767Z,9.80
2018-01-23T11:13:27.751Z,8.98
2018-01-23T11:19:04.311Z,9.77
2018-01-23T11:21:35.563Z,9.02
2018-01-23T11:24:15.839Z,10.18
2018-01-23T11:26:57.471Z,8.40
2018-01-23T11:29:38.843Z,11.00
2018-01-23T11:32:06.864Z,9.05
2018-01-23T11:34:42.207Z,7.80
2018-01-23T11:37:11.243Z,8.13
2018-01-23T11:39:43.795Z,7.43
2018-01-23T11:42:12.731Z,8.95
2018-01-23T11:44:44.651Z,7.82
2018-01-23T11:47:13.646Z,8.70
2018-01-23T11:49:41.671Z,7.30
2018-01-23T11:52:09.699Z,7.75
2018-01-23T11:54:38.675Z,8.55
2018-01-23T11:57:06.691Z,8.15
2018-01-23T11:59:38.419Z,7.78
2018-01-23T12:02:06.443Z,9.43
2018-01-23T12:04:34.471Z,7.85
2018-01-23T12:07:04.526Z,7.45
2018-01-23T12:09:48.402Z,7.93
2018-01-23T12:12:17.330Z,7.57
2018-01-23T12:14:46.275Z,9.40
2018-01-23T12:17:14.295Z,9.13
2018-01-23T12:19:44.267Z,14.57
2018-01-23T12:22:12.326Z,6.90
2018-01-23T12:24:41.319Z,8.43
2018-01-23T12:27:14.735Z,6.90
2018-01-23T12:29:42.754Z,8.07
2018-01-23T12:32:10.767Z,8.45
2018-01-23T12:34:38.787Z,10.32
2018-01-23T12:37:08.743Z,7.47
2018-01-23T12:39:40.286Z,13.43
2018-01-23T12:42:08.311Z,7.18
2018-01-23T12:44:38.226Z,6.65
2018-01-23T12:47:06.250Z,7.85
2018-01-23T12:49:38.154Z,6.90
2018-01-23T12:52:06.194Z,6.80
2018-01-23T12:54:35.217Z,6.50
2018-01-23T12:57:03.186Z,7.50
2018-01-23T12:59:37.671Z,6.93
2018-01-23T13:02:05.686Z,6.40
2018-01-23T13:04:35.647Z,7.50
2018-01-23T13:07:15.870Z,6.18
2018-01-23T13:09:44.895Z,6.87
2018-01-23T13:12:16.686Z,5.20
2018-01-23T13:14:44.722Z,6.80
2018-01-23T13:17:16.074Z,6.40
2018-01-23T13:19:47.822Z,5.32
2018-01-23T13:22:16.762Z,5.20
2018-01-23T13:24:44.782Z,7.75
2018-01-23T13:27:12.798Z,6.55
2018-01-23T13:29:40.830Z,6.95
2018-01-23T13:32:13.606Z,5.90
2018-01-23T13:34:41.636Z,5.80
2018-01-23T13:37:11.590Z,6.45
2018-01-23T13:39:39.606Z,6.18
2018-01-23T13:42:08.542Z,5.25
2018-01-23T13:44:41.138Z,6.90
2018-01-23T13:47:10.054Z,5.45
2018-01-23T13:49:38.074Z,5.50
2018-01-23T13:52:08.102Z,5.70
2018-01-23T13:54:36.138Z,4.45
2018-01-23T13:57:04.165Z,4.70
2018-01-23T13:59:32.182Z,4.78
2018-01-23T14:02:00.202Z,4.97
2018-01-23T14:04:28.982Z,5.30
2018-01-23T14:06:57.966Z,5.30
2018-01-23T14:09:32.858Z,5.15
2018-01-23T14:12:01.882Z,4.37
2018-01-23T14:14:35.625Z,4.12
2018-01-23T14:17:09.386Z,5.57
2018-01-23T14:19:38.406Z,5.50
2018-01-23T14:22:07.194Z,5.03
2018-01-23T14:24:40.770Z,5.28
2018-01-23T14:27:09.686Z,5.12
2018-01-23T14:29:40.410Z,4.57
2018-01-23T14:32:08.438Z,5.25
2018-01-23T14:34:37.454Z,5.05
2018-01-23T14:37:06.454Z,5.18
2018-01-23T14:39:38.806Z,6.37
2018-01-23T14:42:06.818Z,5.53
2018-01-23T14:44:36.850Z,6.53
2018-01-23T14:47:05.794Z,5.85
2018-01-23T14:49:39.340Z,7.03
2018-01-23T14:52:12.066Z,6.68
2018-01-23T14:54:40.978Z,6.20
2018-01-23T14:57:14.590Z,6.85
2018-01-23T14:59:43.362Z,6.43
2018-01-23T15:02:23.770Z,6.97
2018-01-23T15:04:52.810Z,6.90
2018-01-23T15:07:20.854Z,6.10
2018-01-23T15:09:48.870Z,6.07
2018-01-23T15:12:23.374Z,6.50
2018-01-23T15:14:51.402Z,6.62
2018-01-23T15:17:23.102Z,5.20
2018-01-23T15:19:56.646Z,4.70
2018-01-23T15:22:28.470Z,5.30
2018-01-23T15:24:57.261Z,6.07
2018-01-23T15:27:34.594Z,4.85
2018-01-23T15:30:07.210Z,5.97
2018-01-23T15:32:39.318Z,6.25
2018-01-23T15:35:08.250Z,6.78
2018-01-23T15:37:38.270Z,8.10
2018-01-23T15:40:07.266Z,7.12
2018-01-23T15:42:46.987Z,7.75
2018-01-23T15:45:16.898Z,8.30
2018-01-23T15:47:45.918Z,6.90
2018-01-23T15:50:19.426Z,7.78
2018-01-23T15:52:53.814Z,8.45
2018-01-23T15:55:21.830Z,7.30
2018-01-23T15:57:59.090Z,7.65
2018-01-23T16:00:28.834Z,7.55
2018-01-23T16:02:59.482Z,8.57
2018-01-23T16:05:27.493Z,6.80
2018-01-23T16:07:55.510Z,7.32
2018-01-23T16:13:33.370Z,8.00
2018-01-23T16:16:02.278Z,7.60
2018-01-23T16:18:33.906Z,7.30
2018-01-23T16:21:05.634Z,7.93
2018-01-23T16:23:58.202Z,8.77
2018-01-23T16:26:38.654Z,8.20
2018-01-23T16:29:07.582Z,9.07
2018-01-23T16:31:57.225Z,9.60
2018-01-23T16:34:29.937Z,11.00
2018-01-23T16:36:59.853Z,11.82
2018-01-23T16:39:31.726Z,12.43
2018-01-23T16:41:59.742Z,11.20
2018-01-23T16:44:37.574Z,10.65
2018-01-23T16:47:22.790Z,11.40
2018-01-23T16:49:58.682Z,10.60
2018-01-23T16:52:30.805Z,11.10
2018-01-23T16:54:59.598Z,9.40
2018-01-23T16:57:36.193Z,9.35
2018-01-23T17:03:05.473Z,8.38
2018-01-23T17:05:44.394Z,8.57
2018-01-23T17:08:14.333Z,8.82
2018-01-23T17:10:59.118Z,8.88
2018-01-23T17:13:27.145Z,9.10
2018-01-23T17:16:00.834Z,9.52
2018-01-23T17:18:43.070Z,9.45
2018-01-23T17:21:11.095Z,10.95
2018-01-23T17:23:40.001Z,10.55
2018-01-23T17:29:21.143Z,11.43
2018-01-23T17:31:50.218Z,10.73
2018-01-23T17:34:20.112Z,12.20
2018-01-23T17:36:49.937Z,12.40
2018-01-23T17:39:22.269Z,13.55
2018-01-23T17:42:00.573Z,13.20
2018-01-23T17:44:33.265Z,12.02
2018-01-23T17:47:01.313Z,12.57
2018-01-23T17:49:42.129Z,13.57
2018-01-23T17:55:05.309Z,14.02
2018-01-23T17:57:43.353Z,12.63
2018-01-23T18:00:13.273Z,12.10
2018-01-23T18:02:46.085Z,11.77
2018-01-23T18:05:20.557Z,10.60
2018-01-23T18:07:49.521Z,11.30
2018-01-23T18:10:44.145Z,10.88
2018-01-23T18:13:12.197Z,11.88
2018-01-23T18:15:40.218Z,12.05
2018-01-23T18:18:08.237Z,10.40
2018-01-23T18:20:44.965Z,13.15
2018-01-23T18:23:14.293Z,13.85
2018-01-23T18:25:42.389Z,12.60
2018-01-23T18:28:11.242Z,12.60
2018-01-23T18:30:39.269Z,12.02
2018-01-23T18:33:12.505Z,9.93
2018-01-23T18:38:36.161Z,12.15
2018-01-23T18:41:08.428Z,12.85
2018-01-23T18:43:36.729Z,13.10
2018-01-23T18:46:08.923Z,12.37
2018-01-23T18:48:43.601Z,11.82
2018-01-23T18:51:37.217Z,12.18
2018-01-23T18:54:05.896Z,13.05
2018-01-23T18:59:32.572Z,11.40
2018-01-23T19:02:16.533Z,10.75
2018-01-23T19:04:48.161Z,10.48
2018-01-23T19:07:34.976Z,9.80
2018-01-23T19:13:07.264Z,11.00
2018-01-23T19:15:40.164Z,10.27
2018-01-23T19:18:08.459Z,10.50
2018-01-23T19:23:39.501Z,10.38
2018-01-23T19:26:26.776Z,10.57
2018-01-23T19:29:01.557Z,10.90
2018-01-23T19:31:48.848Z,13.57
2018-01-23T19:34:17.207Z,14.87
2018-01-23T19:36:56.304Z,15.30
2018-01-23T19:39:29.216Z,15.32
2018-01-23T19:41:58.128Z,12.45
2018-01-23T19:44:27.073Z,11.02
2018-01-23T19:46:55.992Z,10.82
2018-01-23T19:49:32.680Z,10.30
2018-01-23T19:52:00.720Z,9.57
2018-01-23T19:54:34.360Z,9.82
2018-01-23T19:57:03.268Z,9.02
2018-01-23T19:59:42.237Z,8.75
2018-01-23T20:02:12.216Z,8.57
2018-01-23T20:04:42.180Z,7.55
2018-01-23T20:07:15.344Z,7.00
2018-01-23T20:09:49.072Z,8.32
2018-01-23T20:12:19.001Z,6.82
2018-01-23T20:14:52.224Z,8.00
2018-01-23T20:17:20.260Z,7.07
2018-01-23T20:19:52.101Z,6.65
2018-01-23T20:22:21.092Z,6.87
2018-01-23T20:24:55.540Z,7.25
2018-01-23T20:27:30.432Z,6.50
2018-01-23T20:29:58.804Z,7.00
2018-01-23T20:32:27.860Z,7.80
2018-01-23T20:34:56.076Z,7.68
2018-01-23T20:37:36.316Z,6.75
2018-01-23T20:40:07.993Z,7.43
2018-01-23T20:42:36.992Z,6.40
2018-01-23T20:45:05.912Z,7.15
2018-01-23T20:47:44.792Z,5.87
2018-01-23T20:50:19.388Z,6.40
2018-01-23T20:52:51.580Z,7.47
2018-01-23T20:55:21.730Z,6.00
2018-01-23T20:57:54.776Z,6.45
2018-01-23T21:00:23.692Z,6.65
2018-01-23T21:02:53.628Z,6.40
2018-01-23T21:05:22.420Z,6.50
2018-01-23T21:07:51.216Z,7.22
2018-01-23T21:10:35.100Z,6.53
2018-01-23T21:13:12.356Z,7.75
2018-01-23T21:15:50.288Z,8.63
2018-01-23T21:18:24.476Z,7.85
2018-01-23T21:21:06.864Z,8.90
2018-01-23T21:23:42.624Z,6.97
2018-01-23T21:26:11.580Z,7.93
2018-01-23T21:28:47.200Z,8.18
2018-01-23T21:31:20.932Z,7.37
2018-01-23T21:34:01.140Z,7.80
2018-01-23T21:36:30.212Z,7.57
2018-01-23T21:39:01.928Z,7.85
2018-01-23T21:44:30.612Z,7.57
2018-01-23T21:46:58.676Z,9.60
2018-01-23T21:49:35.652Z,8.98
2018-01-23T21:52:12.416Z,8.75
2018-01-23T21:54:45.544Z,9.52
2018-01-23T21:57:14.640Z,8.95
2018-01-23T21:59:43.712Z,8.20
2018-01-23T22:02:22.476Z,8.57
2018-01-23T22:04:58.872Z,8.23
2018-01-23T22:07:30.572Z,8.32
2018-01-23T22:09:59.548Z,8.73
2018-01-23T22:12:41.664Z,9.05
2018-01-23T22:15:15.060Z,8.68
2018-01-23T22:17:51.519Z,9.27
2018-01-23T22:20:34.763Z,8.98
2018-01-23T22:23:03.748Z,8.32
2018-01-23T22:25:49.844Z,7.75
2018-01-23T22:34:08.888Z,8.07
2018-01-23T22:36:45.200Z,8.02
2018-01-23T22:39:37.304Z,7.95
2018-01-23T22:42:12.259Z,7.95
2018-01-23T22:44:46.104Z,7.35
2018-01-23T22:47:24.872Z,8.75
2018-01-23T22:49:53.328Z,7.62
2018-01-23T22:57:50.844Z,7.32
2018-01-23T23:00:36.012Z,7.75
2018-01-23T23:03:09.432Z,7.65
2018-01-23T23:05:48.384Z,7.80
2018-01-23T23:08:18.383Z,7.82
2018-01-23T23:10:46.420Z,7.43
2018-01-23T23:13:21.228Z,6.50
2018-01-23T23:15:52.448Z,6.78
2018-01-23T23:18:22.167Z,6.47
2018-01-23T23:21:03.311Z,6.90
2018-01-23T23:23:50.999Z,7.07
2018-01-23T23:29:03.760Z,7.75
2018-01-23T23:36:58.991Z,8.30
2018-01-23T23:47:42.171Z,6.65
2018-01-23T23:50:12.203Z,7.05
2018-01-23T23:52:44.555Z,6.30
